Rhyll, Australia
Current Conditions -  °F | °C
As of 6:30 PM on Wednesday 26 Nov 2014 (Local Time) from YMAV Reporting Station
Overcast Overcast  
Wind Chill: 59°   Ceiling: 2700
Heat Index: 59°   Visibility: 6mi
Dew Point: 48°   Wind: 15mph
Humidity: 67%   Direction: 180°S
Pressure: 30.18"   Gusts: NA
Location:  38.46°S, 145.3°E
Report Text: YMAV 260730Z AUTO 18013KT 9999 // OVC027 15/09 Q1022
Loading
Personal Weather Stations






























Interactive Weather Map New forecast layout! Learn more

10-Day Weather Forecast

Advertisements
Track Severe Weather on mobile